sensor_id;sensor_type;location;lat;lon;timestamp;P1;durP1;ratioP1;P2;durP2;ratioP2
572;SDS011;271;51.114;13.780;2023-11-19T00:02:17;24.38;;;8.60;;
572;SDS011;271;51.114;13.780;2023-11-19T00:05:05;23.13;;;8.38;;
572;SDS011;271;51.114;13.780;2023-11-19T00:07:54;23.10;;;8.43;;
572;SDS011;271;51.114;13.780;2023-11-19T00:10:43;23.98;;;8.35;;
572;SDS011;271;51.114;13.780;2023-11-19T00:13:32;24.27;;;9.52;;
572;SDS011;271;51.114;13.780;2023-11-19T00:16:19;23.83;;;8.88;;
572;SDS011;271;51.114;13.780;2023-11-19T00:19:07;25.90;;;10.00;;
572;SDS011;271;51.114;13.780;2023-11-19T00:21:55;25.17;;;8.80;;
572;SDS011;271;51.114;13.780;2023-11-19T00:24:42;23.65;;;8.30;;
572;SDS011;271;51.114;13.780;2023-11-19T00:27:32;24.27;;;9.18;;
572;SDS011;271;51.114;13.780;2023-11-19T00:30:19;26.85;;;10.13;;
572;SDS011;271;51.114;13.780;2023-11-19T00:33:07;24.85;;;8.50;;
572;SDS011;271;51.114;13.780;2023-11-19T00:35:54;30.70;;;10.85;;
572;SDS011;271;51.114;13.780;2023-11-19T00:38:42;24.75;;;9.10;;
572;SDS011;271;51.114;13.780;2023-11-19T00:41:30;25.20;;;8.82;;
572;SDS011;271;51.114;13.780;2023-11-19T00:44:19;24.00;;;8.68;;
572;SDS011;271;51.114;13.780;2023-11-19T00:47:07;27.45;;;8.95;;
572;SDS011;271;51.114;13.780;2023-11-19T00:49:55;24.23;;;9.18;;
572;SDS011;271;51.114;13.780;2023-11-19T00:52:42;22.15;;;7.72;;
572;SDS011;271;51.114;13.780;2023-11-19T00:55:30;24.25;;;9.13;;
572;SDS011;271;51.114;13.780;2023-11-19T00:58:18;24.23;;;8.23;;
572;SDS011;271;51.114;13.780;2023-11-19T01:01:07;24.02;;;9.02;;
572;SDS011;271;51.114;13.780;2023-11-19T01:03:54;24.27;;;8.27;;
572;SDS011;271;51.114;13.780;2023-11-19T01:06:43;24.67;;;8.88;;
572;SDS011;271;51.114;13.780;2023-11-19T01:09:30;24.02;;;8.68;;
572;SDS011;271;51.114;13.780;2023-11-19T01:12:20;24.38;;;7.57;;
572;SDS011;271;51.114;13.780;2023-11-19T01:15:08;21.85;;;7.93;;
572;SDS011;271;51.114;13.780;2023-11-19T01:17:57;23.00;;;7.53;;
572;SDS011;271;51.114;13.780;2023-11-19T01:20:45;22.30;;;7.97;;
572;SDS011;271;51.114;13.780;2023-11-19T01:23:33;23.63;;;8.40;;
572;SDS011;271;51.114;13.780;2023-11-19T01:26:20;25.67;;;7.60;;
572;SDS011;271;51.114;13.780;2023-11-19T01:29:08;24.98;;;8.45;;
572;SDS011;271;51.114;13.780;2023-11-19T01:31:56;23.90;;;8.23;;
572;SDS011;271;51.114;13.780;2023-11-19T01:34:45;23.27;;;7.60;;
572;SDS011;271;51.114;13.780;2023-11-19T01:37:33;21.92;;;7.20;;
572;SDS011;271;51.114;13.780;2023-11-19T01:40:21;22.77;;;7.03;;
572;SDS011;271;51.114;13.780;2023-11-19T01:43:09;22.95;;;7.43;;
572;SDS011;271;51.114;13.780;2023-11-19T01:45:59;21.17;;;6.10;;
572;SDS011;271;51.114;13.780;2023-11-19T01:48:47;22.55;;;7.00;;
572;SDS011;271;51.114;13.780;2023-11-19T01:51:36;22.50;;;6.43;;
572;SDS011;271;51.114;13.780;2023-11-19T01:54:26;22.40;;;6.55;;
572;SDS011;271;51.114;13.780;2023-11-19T01:57:15;22.70;;;7.13;;
572;SDS011;271;51.114;13.780;2023-11-19T02:00:03;20.70;;;5.18;;
572;SDS011;271;51.114;13.780;2023-11-19T02:02:51;21.40;;;5.88;;
572;SDS011;271;51.114;13.780;2023-11-19T02:05:40;20.60;;;5.32;;
572;SDS011;271;51.114;13.780;2023-11-19T02:08:40;20.33;;;5.60;;
572;SDS011;271;51.114;13.780;2023-11-19T02:11:28;20.55;;;5.25;;
572;SDS011;271;51.114;13.780;2023-11-19T02:14:16;20.20;;;5.70;;
572;SDS011;271;51.114;13.780;2023-11-19T02:17:05;22.13;;;4.50;;
572;SDS011;271;51.114;13.780;2023-11-19T02:19:54;20.13;;;4.95;;
572;SDS011;271;51.114;13.780;2023-11-19T02:22:41;20.65;;;5.25;;
572;SDS011;271;51.114;13.780;2023-11-19T02:25:31;19.75;;;4.18;;
572;SDS011;271;51.114;13.780;2023-11-19T02:28:21;19.88;;;4.38;;
572;SDS011;271;51.114;13.780;2023-11-19T02:31:10;17.90;;;3.45;;
572;SDS011;271;51.114;13.780;2023-11-19T02:33:59;19.40;;;3.70;;
572;SDS011;271;51.114;13.780;2023-11-19T02:36:48;20.48;;;3.45;;
572;SDS011;271;51.114;13.780;2023-11-19T02:39:36;18.95;;;2.97;;
572;SDS011;271;51.114;13.780;2023-11-19T02:42:23;18.00;;;2.88;;
572;SDS011;271;51.114;13.780;2023-11-19T02:45:12;18.17;;;2.80;;
572;SDS011;271;51.114;13.780;2023-11-19T02:48:01;17.35;;;2.72;;
572;SDS011;271;51.114;13.780;2023-11-19T02:50:52;17.80;;;2.90;;
572;SDS011;271;51.114;13.780;2023-11-19T02:53:39;18.08;;;3.05;;
572;SDS011;271;51.114;13.780;2023-11-19T02:56:30;17.92;;;2.90;;
572;SDS011;271;51.114;13.780;2023-11-19T02:59:21;19.20;;;3.00;;
572;SDS011;271;51.114;13.780;2023-11-19T03:02:14;17.38;;;2.70;;
572;SDS011;271;51.114;13.780;2023-11-19T03:05:03;18.25;;;3.40;;
572;SDS011;271;51.114;13.780;2023-11-19T03:07:51;17.35;;;2.35;;
572;SDS011;271;51.114;13.780;2023-11-19T03:10:39;18.02;;;3.08;;
572;SDS011;271;51.114;13.780;2023-11-19T03:13:26;17.60;;;2.40;;
572;SDS011;271;51.114;13.780;2023-11-19T03:16:14;18.00;;;3.22;;
572;SDS011;271;51.114;13.780;2023-11-19T03:19:04;18.77;;;3.13;;
572;SDS011;271;51.114;13.780;2023-11-19T03:21:51;18.05;;;2.80;;
572;SDS011;271;51.114;13.780;2023-11-19T03:24:40;19.55;;;2.67;;
572;SDS011;271;51.114;13.780;2023-11-19T03:27:27;17.42;;;2.45;;
572;SDS011;271;51.114;13.780;2023-11-19T03:30:15;18.30;;;2.95;;
572;SDS011;271;51.114;13.780;2023-11-19T03:33:03;18.60;;;2.30;;
572;SDS011;271;51.114;13.780;2023-11-19T03:35:53;18.05;;;2.80;;
572;SDS011;271;51.114;13.780;2023-11-19T03:38:42;19.02;;;3.03;;
572;SDS011;271;51.114;13.780;2023-11-19T03:41:29;18.60;;;2.45;;
572;SDS011;271;51.114;13.780;2023-11-19T03:44:17;17.02;;;2.13;;
572;SDS011;271;51.114;13.780;2023-11-19T03:47:05;17.98;;;2.47;;
572;SDS011;271;51.114;13.780;2023-11-19T03:49:52;17.63;;;2.40;;
572;SDS011;271;51.114;13.780;2023-11-19T03:52:41;18.30;;;2.80;;
572;SDS011;271;51.114;13.780;2023-11-19T03:55:29;17.70;;;2.50;;
572;SDS011;271;51.114;13.780;2023-11-19T03:58:17;18.33;;;2.63;;
572;SDS011;271;51.114;13.780;2023-11-19T04:01:05;17.45;;;2.65;;
572;SDS011;271;51.114;13.780;2023-11-19T04:03:52;17.50;;;2.50;;
572;SDS011;271;51.114;13.780;2023-11-19T04:06:41;18.00;;;3.00;;
572;SDS011;271;51.114;13.780;2023-11-19T04:09:30;18.63;;;3.13;;
572;SDS011;271;51.114;13.780;2023-11-19T04:12:18;17.95;;;2.95;;
572;SDS011;271;51.114;13.780;2023-11-19T04:15:08;18.38;;;3.20;;
572;SDS011;271;51.114;13.780;2023-11-19T04:17:56;19.15;;;3.58;;
572;SDS011;271;51.114;13.780;2023-11-19T04:20:43;20.50;;;4.38;;
572;SDS011;271;51.114;13.780;2023-11-19T04:23:31;18.15;;;3.60;;
572;SDS011;271;51.114;13.780;2023-11-19T04:26:20;20.52;;;4.35;;
572;SDS011;271;51.114;13.780;2023-11-19T04:29:08;20.13;;;4.15;;
572;SDS011;271;51.114;13.780;2023-11-19T04:31:57;20.40;;;4.85;;
572;SDS011;271;51.114;13.780;2023-11-19T04:34:45;19.15;;;4.50;;
572;SDS011;271;51.114;13.780;2023-11-19T04:37:32;20.35;;;4.15;;
572;SDS011;271;51.114;13.780;2023-11-19T04:40:20;18.70;;;4.20;;
572;SDS011;271;51.114;13.780;2023-11-19T04:43:10;20.02;;;5.03;;
572;SDS011;271;51.114;13.780;2023-11-19T04:45:58;19.73;;;4.95;;
572;SDS011;271;51.114;13.780;2023-11-19T04:48:46;19.05;;;4.22;;
572;SDS011;271;51.114;13.780;2023-11-19T04:51:37;20.33;;;5.07;;
572;SDS011;271;51.114;13.780;2023-11-19T04:54:25;19.25;;;4.35;;
572;SDS011;271;51.114;13.780;2023-11-19T04:57:13;20.50;;;4.40;;
572;SDS011;271;51.114;13.780;2023-11-19T05:00:02;20.92;;;5.10;;
572;SDS011;271;51.114;13.780;2023-11-19T05:02:50;20.60;;;5.35;;
572;SDS011;271;51.114;13.780;2023-11-19T05:05:38;21.15;;;5.53;;
572;SDS011;271;51.114;13.780;2023-11-19T05:08:26;20.67;;;5.15;;
572;SDS011;271;51.114;13.780;2023-11-19T05:11:13;19.98;;;4.57;;
572;SDS011;271;51.114;13.780;2023-11-19T05:14:03;19.90;;;4.80;;
572;SDS011;271;51.114;13.780;2023-11-19T05:16:53;20.42;;;5.18;;
572;SDS011;271;51.114;13.780;2023-11-19T05:19:41;20.58;;;4.50;;
572;SDS011;271;51.114;13.780;2023-11-19T05:22:28;20.33;;;4.93;;
572;SDS011;271;51.114;13.780;2023-11-19T05:25:16;20.60;;;5.10;;
572;SDS011;271;51.114;13.780;2023-11-19T05:28:05;20.80;;;5.10;;
572;SDS011;271;51.114;13.780;2023-11-19T05:30:54;20.73;;;5.28;;
572;SDS011;271;51.114;13.780;2023-11-19T05:33:43;21.70;;;4.70;;
572;SDS011;271;51.114;13.780;2023-11-19T05:36:31;20.48;;;4.32;;
572;SDS011;271;51.114;13.780;2023-11-19T05:39:18;19.25;;;4.72;;
572;SDS011;271;51.114;13.780;2023-11-19T05:42:07;20.55;;;4.90;;
572;SDS011;271;51.114;13.780;2023-11-19T05:44:55;22.20;;;4.95;;
572;SDS011;271;51.114;13.780;2023-11-19T05:47:43;20.10;;;4.78;;
572;SDS011;271;51.114;13.780;2023-11-19T05:50:32;23.20;;;4.45;;
572;SDS011;271;51.114;13.780;2023-11-19T05:53:20;20.83;;;5.70;;
572;SDS011;271;51.114;13.780;2023-11-19T05:56:08;20.08;;;5.13;;
572;SDS011;271;51.114;13.780;2023-11-19T05:58:56;19.00;;;4.97;;
572;SDS011;271;51.114;13.780;2023-11-19T06:01:44;19.30;;;4.20;;
572;SDS011;271;51.114;13.780;2023-11-19T06:04:32;20.17;;;5.15;;
572;SDS011;271;51.114;13.780;2023-11-19T06:07:21;21.95;;;5.47;;
572;SDS011;271;51.114;13.780;2023-11-19T06:10:09;20.25;;;5.20;;
572;SDS011;271;51.114;13.780;2023-11-19T06:12:58;20.05;;;4.90;;
572;SDS011;271;51.114;13.780;2023-11-19T06:15:50;19.88;;;5.00;;
572;SDS011;271;51.114;13.780;2023-11-19T06:18:38;20.02;;;4.50;;
572;SDS011;271;51.114;13.780;2023-11-19T06:21:27;20.15;;;4.78;;
572;SDS011;271;51.114;13.780;2023-11-19T06:24:16;21.42;;;5.53;;
572;SDS011;271;51.114;13.780;2023-11-19T06:27:04;22.48;;;5.55;;
572;SDS011;271;51.114;13.780;2023-11-19T06:29:51;20.33;;;5.53;;
572;SDS011;271;51.114;13.780;2023-11-19T06:32:39;20.73;;;5.07;;
572;SDS011;271;51.114;13.780;2023-11-19T06:35:27;20.33;;;5.35;;
572;SDS011;271;51.114;13.780;2023-11-19T06:38:21;19.50;;;4.30;;
572;SDS011;271;51.114;13.780;2023-11-19T06:41:10;19.95;;;4.60;;
572;SDS011;271;51.114;13.780;2023-11-19T06:43:58;20.33;;;4.95;;
572;SDS011;271;51.114;13.780;2023-11-19T06:46:46;18.45;;;4.05;;
572;SDS011;271;51.114;13.780;2023-11-19T06:49:35;19.75;;;4.70;;
572;SDS011;271;51.114;13.780;2023-11-19T06:52:23;18.10;;;3.50;;
572;SDS011;271;51.114;13.780;2023-11-19T06:55:11;18.83;;;3.92;;
572;SDS011;271;51.114;13.780;2023-11-19T06:58:01;19.55;;;4.85;;
572;SDS011;271;51.114;13.780;2023-11-19T07:00:49;18.30;;;3.53;;
572;SDS011;271;51.114;13.780;2023-11-19T07:03:37;18.35;;;3.38;;
572;SDS011;271;51.114;13.780;2023-11-19T07:06:27;19.23;;;3.38;;
572;SDS011;271;51.114;13.780;2023-11-19T07:09:15;18.15;;;3.00;;
572;SDS011;271;51.114;13.780;2023-11-19T07:12:11;17.90;;;2.80;;
572;SDS011;271;51.114;13.780;2023-11-19T07:15:01;17.75;;;2.70;;
572;SDS011;271;51.114;13.780;2023-11-19T07:17:49;17.25;;;2.40;;
572;SDS011;271;51.114;13.780;2023-11-19T07:20:40;17.85;;;3.65;;
572;SDS011;271;51.114;13.780;2023-11-19T07:23:28;19.25;;;2.80;;
572;SDS011;271;51.114;13.780;2023-11-19T07:26:19;17.30;;;3.00;;
572;SDS011;271;51.114;13.780;2023-11-19T07:29:12;18.55;;;3.65;;
572;SDS011;271;51.114;13.780;2023-11-19T07:32:02;20.35;;;5.40;;
572;SDS011;271;51.114;13.780;2023-11-19T07:34:51;21.10;;;5.53;;
572;SDS011;271;51.114;13.780;2023-11-19T07:37:38;20.35;;;5.53;;
572;SDS011;271;51.114;13.780;2023-11-19T07:40:26;20.08;;;4.78;;
572;SDS011;271;51.114;13.780;2023-11-19T07:43:14;19.80;;;5.10;;
572;SDS011;271;51.114;13.780;2023-11-19T07:46:02;22.02;;;6.15;;
572;SDS011;271;51.114;13.780;2023-11-19T07:48:51;20.63;;;5.72;;
572;SDS011;271;51.114;13.780;2023-11-19T07:51:39;19.85;;;5.22;;
572;SDS011;271;51.114;13.780;2023-11-19T07:54:27;19.20;;;4.35;;
572;SDS011;271;51.114;13.780;2023-11-19T07:57:15;21.30;;;5.97;;
572;SDS011;271;51.114;13.780;2023-11-19T08:00:04;27.60;;;6.70;;
572;SDS011;271;51.114;13.780;2023-11-19T08:02:53;27.65;;;8.30;;
572;SDS011;271;51.114;13.780;2023-11-19T08:05:42;19.70;;;5.40;;
572;SDS011;271;51.114;13.780;2023-11-19T08:08:31;19.67;;;3.25;;
572;SDS011;271;51.114;13.780;2023-11-19T08:11:20;17.58;;;3.20;;
572;SDS011;271;51.114;13.780;2023-11-19T08:14:08;17.85;;;4.35;;
572;SDS011;271;51.114;13.780;2023-11-19T08:16:56;17.85;;;3.30;;
572;SDS011;271;51.114;13.780;2023-11-19T08:19:43;17.90;;;3.83;;
572;SDS011;271;51.114;13.780;2023-11-19T08:22:33;18.88;;;4.15;;
572;SDS011;271;51.114;13.780;2023-11-19T08:25:20;17.55;;;3.58;;
572;SDS011;271;51.114;13.780;2023-11-19T08:28:09;18.27;;;2.88;;
572;SDS011;271;51.114;13.780;2023-11-19T08:30:56;17.30;;;3.00;;
572;SDS011;271;51.114;13.780;2023-11-19T08:33:44;17.75;;;2.60;;
572;SDS011;271;51.114;13.780;2023-11-19T08:36:32;17.75;;;3.42;;
572;SDS011;271;51.114;13.780;2023-11-19T08:39:21;20.00;;;4.90;;
572;SDS011;271;51.114;13.780;2023-11-19T08:42:09;20.30;;;4.65;;
572;SDS011;271;51.114;13.780;2023-11-19T08:44:57;18.45;;;4.22;;
572;SDS011;271;51.114;13.780;2023-11-19T08:47:45;17.17;;;3.30;;
572;SDS011;271;51.114;13.780;2023-11-19T08:50:33;18.40;;;2.90;;
572;SDS011;271;51.114;13.780;2023-11-19T08:53:20;19.85;;;3.08;;
572;SDS011;271;51.114;13.780;2023-11-19T08:56:10;16.02;;;1.67;;
572;SDS011;271;51.114;13.780;2023-11-19T08:58:57;16.83;;;2.17;;
572;SDS011;271;51.114;13.780;2023-11-19T09:01:45;18.13;;;3.25;;
572;SDS011;271;51.114;13.780;2023-11-19T09:04:33;16.60;;;1.70;;
572;SDS011;271;51.114;13.780;2023-11-19T09:07:21;17.63;;;2.37;;
572;SDS011;271;51.114;13.780;2023-11-19T09:10:09;18.98;;;2.50;;
572;SDS011;271;51.114;13.780;2023-11-19T09:12:59;16.77;;;2.20;;
572;SDS011;271;51.114;13.780;2023-11-19T09:15:46;18.15;;;3.15;;
572;SDS011;271;51.114;13.780;2023-11-19T09:18:34;19.50;;;3.15;;
572;SDS011;271;51.114;13.780;2023-11-19T09:21:21;18.10;;;3.03;;
572;SDS011;271;51.114;13.780;2023-11-19T09:24:09;16.42;;;2.13;;
572;SDS011;271;51.114;13.780;2023-11-19T09:26:57;17.48;;;2.40;;
572;SDS011;271;51.114;13.780;2023-11-19T09:29:47;16.80;;;2.20;;
572;SDS011;271;51.114;13.780;2023-11-19T09:32:36;17.35;;;2.65;;
572;SDS011;271;51.114;13.780;2023-11-19T09:35:24;16.57;;;2.10;;
572;SDS011;271;51.114;13.780;2023-11-19T09:38:12;16.20;;;1.83;;
572;SDS011;271;51.114;13.780;2023-11-19T09:40:59;17.87;;;1.60;;
572;SDS011;271;51.114;13.780;2023-11-19T09:43:47;17.27;;;1.60;;
572;SDS011;271;51.114;13.780;2023-11-19T09:46:36;19.00;;;3.20;;
572;SDS011;271;51.114;13.780;2023-11-19T09:49:25;22.13;;;3.43;;
572;SDS011;271;51.114;13.780;2023-11-19T09:52:14;25.93;;;7.20;;
572;SDS011;271;51.114;13.780;2023-11-19T09:55:02;20.80;;;4.70;;
572;SDS011;271;51.114;13.780;2023-11-19T09:57:50;20.50;;;3.17;;
572;SDS011;271;51.114;13.780;2023-11-19T10:00:39;18.00;;;2.10;;
572;SDS011;271;51.114;13.780;2023-11-19T10:03:29;17.93;;;2.33;;
572;SDS011;271;51.114;13.780;2023-11-19T10:06:19;17.50;;;2.10;;
572;SDS011;271;51.114;13.780;2023-11-19T10:09:07;18.00;;;1.87;;
572;SDS011;271;51.114;13.780;2023-11-19T10:11:55;17.43;;;2.00;;
572;SDS011;271;51.114;13.780;2023-11-19T10:14:43;17.33;;;1.60;;
572;SDS011;271;51.114;13.780;2023-11-19T10:17:32;18.97;;;2.03;;
572;SDS011;271;51.114;13.780;2023-11-19T10:20:22;16.17;;;1.70;;
572;SDS011;271;51.114;13.780;2023-11-19T10:23:09;16.40;;;1.70;;
572;SDS011;271;51.114;13.780;2023-11-19T10:26:02;17.87;;;1.80;;
572;SDS011;271;51.114;13.780;2023-11-19T10:28:52;17.47;;;1.70;;
572;SDS011;271;51.114;13.780;2023-11-19T10:31:39;16.77;;;1.30;;
572;SDS011;271;51.114;13.780;2023-11-19T10:34:27;17.20;;;1.50;;
572;SDS011;271;51.114;13.780;2023-11-19T10:37:28;18.57;;;1.30;;
572;SDS011;271;51.114;13.780;2023-11-19T10:40:18;16.33;;;1.30;;
572;SDS011;271;51.114;13.780;2023-11-19T10:43:06;16.30;;;1.30;;
572;SDS011;271;51.114;13.780;2023-11-19T10:45:54;18.40;;;2.60;;
572;SDS011;271;51.114;13.780;2023-11-19T10:48:56;16.47;;;1.30;;
572;SDS011;271;51.114;13.780;2023-11-19T10:51:45;17.80;;;1.20;;
572;SDS011;271;51.114;13.780;2023-11-19T10:54:34;16.77;;;1.30;;
572;SDS011;271;51.114;13.780;2023-11-19T10:57:23;16.13;;;1.10;;
572;SDS011;271;51.114;13.780;2023-11-19T11:00:18;16.60;;;1.30;;
572;SDS011;271;51.114;13.780;2023-11-19T11:03:09;15.97;;;1.13;;
572;SDS011;271;51.114;13.780;2023-11-19T11:06:02;16.80;;;1.77;;
572;SDS011;271;51.114;13.780;2023-11-19T11:08:51;16.63;;;1.20;;
572;SDS011;271;51.114;13.780;2023-11-19T11:11:40;17.40;;;1.50;;
572;SDS011;271;51.114;13.780;2023-11-19T11:14:30;18.40;;;1.50;;
572;SDS011;271;51.114;13.780;2023-11-19T11:17:21;17.70;;;1.40;;
572;SDS011;271;51.114;13.780;2023-11-19T11:20:13;17.83;;;1.70;;
572;SDS011;271;51.114;13.780;2023-11-19T11:23:12;16.57;;;1.30;;
572;SDS011;271;51.114;13.780;2023-11-19T11:26:35;18.60;;;2.10;;
572;SDS011;271;51.114;13.780;2023-11-19T11:29:46;29.43;;;6.90;;
572;SDS011;271;51.114;13.780;2023-11-19T11:32:45;36.40;;;10.93;;
572;SDS011;271;51.114;13.780;2023-11-19T11:35:42;23.10;;;5.50;;
572;SDS011;271;51.114;13.780;2023-11-19T11:38:40;17.87;;;2.47;;
572;SDS011;271;51.114;13.780;2023-11-19T11:41:28;17.80;;;2.13;;
572;SDS011;271;51.114;13.780;2023-11-19T11:44:16;17.10;;;1.80;;
572;SDS011;271;51.114;13.780;2023-11-19T11:47:05;17.00;;;1.60;;
572;SDS011;271;51.114;13.780;2023-11-19T11:49:53;17.00;;;1.60;;
572;SDS011;271;51.114;13.780;2023-11-19T11:56:01;17.63;;;1.37;;
572;SDS011;271;51.114;13.780;2023-11-19T11:58:50;17.57;;;1.97;;
572;SDS011;271;51.114;13.780;2023-11-19T12:02:15;17.57;;;1.60;;
572;SDS011;271;51.114;13.780;2023-11-19T12:05:04;36.17;;;2.83;;
572;SDS011;271;51.114;13.780;2023-11-19T12:07:57;18.40;;;1.63;;
572;SDS011;271;51.114;13.780;2023-11-19T12:11:08;18.00;;;1.60;;
572;SDS011;271;51.114;13.780;2023-11-19T12:13:59;17.90;;;1.40;;
572;SDS011;271;51.114;13.780;2023-11-19T12:16:50;19.97;;;1.57;;
572;SDS011;271;51.114;13.780;2023-11-19T12:19:42;17.47;;;1.30;;
572;SDS011;271;51.114;13.780;2023-11-19T12:22:31;20.00;;;1.73;;
572;SDS011;271;51.114;13.780;2023-11-19T12:26:21;17.80;;;1.70;;
572;SDS011;271;51.114;13.780;2023-11-19T12:29:44;17.27;;;1.77;;
572;SDS011;271;51.114;13.780;2023-11-19T12:32:40;18.50;;;3.20;;
572;SDS011;271;51.114;13.780;2023-11-19T12:35:29;18.93;;;2.03;;
572;SDS011;271;51.114;13.780;2023-11-19T12:38:20;19.30;;;2.43;;
572;SDS011;271;51.114;13.780;2023-11-19T12:45:13;20.13;;;2.53;;
572;SDS011;271;51.114;13.780;2023-11-19T12:48:57;19.23;;;2.10;;
572;SDS011;271;51.114;13.780;2023-11-19T12:52:20;19.67;;;2.77;;
572;SDS011;271;51.114;13.780;2023-11-19T12:55:23;17.43;;;1.93;;
572;SDS011;271;51.114;13.780;2023-11-19T13:01:16;19.37;;;2.17;;
572;SDS011;271;51.114;13.780;2023-11-19T13:04:15;22.17;;;2.80;;
572;SDS011;271;51.114;13.780;2023-11-19T13:07:03;23.07;;;2.23;;
572;SDS011;271;51.114;13.780;2023-11-19T13:09:53;19.70;;;2.03;;
572;SDS011;271;51.114;13.780;2023-11-19T13:12:59;19.90;;;3.00;;
572;SDS011;271;51.114;13.780;2023-11-19T13:15:48;25.33;;;5.50;;
572;SDS011;271;51.114;13.780;2023-11-19T13:18:36;20.77;;;3.63;;
572;SDS011;271;51.114;13.780;2023-11-19T13:21:24;20.47;;;4.10;;
572;SDS011;271;51.114;13.780;2023-11-19T13:24:13;20.80;;;3.00;;
572;SDS011;271;51.114;13.780;2023-11-19T13:27:04;22.07;;;2.83;;
572;SDS011;271;51.114;13.780;2023-11-19T13:29:51;23.40;;;4.37;;
572;SDS011;271;51.114;13.780;2023-11-19T13:32:39;21.43;;;2.83;;
572;SDS011;271;51.114;13.780;2023-11-19T13:35:27;22.60;;;4.50;;
572;SDS011;271;51.114;13.780;2023-11-19T13:38:15;21.13;;;2.90;;
572;SDS011;271;51.114;13.780;2023-11-19T13:41:03;22.83;;;3.97;;
572;SDS011;271;51.114;13.780;2023-11-19T13:43:53;19.73;;;3.67;;
572;SDS011;271;51.114;13.780;2023-11-19T13:46:44;24.47;;;4.50;;
572;SDS011;271;51.114;13.780;2023-11-19T13:49:33;22.07;;;3.53;;
572;SDS011;271;51.114;13.780;2023-11-19T13:52:20;22.90;;;4.03;;
572;SDS011;271;51.114;13.780;2023-11-19T13:55:09;25.40;;;3.70;;
572;SDS011;271;51.114;13.780;2023-11-19T13:57:57;28.87;;;4.50;;
572;SDS011;271;51.114;13.780;2023-11-19T14:00:47;23.43;;;3.70;;
572;SDS011;271;51.114;13.780;2023-11-19T14:03:34;24.63;;;5.17;;
572;SDS011;271;51.114;13.780;2023-11-19T14:06:22;21.97;;;2.77;;
572;SDS011;271;51.114;13.780;2023-11-19T14:09:10;24.13;;;3.53;;
572;SDS011;271;51.114;13.780;2023-11-19T14:11:58;23.60;;;2.87;;
572;SDS011;271;51.114;13.780;2023-11-19T14:14:46;21.73;;;3.63;;
572;SDS011;271;51.114;13.780;2023-11-19T14:17:35;23.70;;;3.70;;
572;SDS011;271;51.114;13.780;2023-11-19T14:20:23;23.03;;;4.23;;
572;SDS011;271;51.114;13.780;2023-11-19T14:23:12;22.03;;;3.37;;
572;SDS011;271;51.114;13.780;2023-11-19T14:26:00;24.43;;;3.90;;
572;SDS011;271;51.114;13.780;2023-11-19T14:28:48;24.87;;;3.40;;
572;SDS011;271;51.114;13.780;2023-11-19T14:31:36;20.53;;;2.80;;
572;SDS011;271;51.114;13.780;2023-11-19T14:34:25;19.00;;;2.17;;
572;SDS011;271;51.114;13.780;2023-11-19T14:37:13;20.27;;;2.67;;
572;SDS011;271;51.114;13.780;2023-11-19T14:40:01;20.57;;;4.00;;
572;SDS011;271;51.114;13.780;2023-11-19T14:42:51;20.20;;;2.23;;
572;SDS011;271;51.114;13.780;2023-11-19T14:45:39;22.70;;;3.60;;
572;SDS011;271;51.114;13.780;2023-11-19T14:48:27;21.00;;;3.13;;
572;SDS011;271;51.114;13.780;2023-11-19T14:51:16;21.50;;;3.47;;
572;SDS011;271;51.114;13.780;2023-11-19T14:54:04;23.60;;;6.80;;
572;SDS011;271;51.114;13.780;2023-11-19T14:56:51;26.67;;;5.83;;
572;SDS011;271;51.114;13.780;2023-11-19T14:59:39;22.20;;;4.70;;
572;SDS011;271;51.114;13.780;2023-11-19T15:02:27;25.47;;;5.13;;
572;SDS011;271;51.114;13.780;2023-11-19T15:05:15;24.10;;;4.90;;
572;SDS011;271;51.114;13.780;2023-11-19T15:08:04;31.67;;;10.27;;
572;SDS011;271;51.114;13.780;2023-11-19T15:10:52;24.00;;;4.47;;
572;SDS011;271;51.114;13.780;2023-11-19T15:13:39;23.47;;;3.97;;
572;SDS011;271;51.114;13.780;2023-11-19T15:16:28;22.07;;;5.10;;
572;SDS011;271;51.114;13.780;2023-11-19T15:19:18;22.67;;;4.23;;
572;SDS011;271;51.114;13.780;2023-11-19T15:22:07;27.00;;;6.30;;
572;SDS011;271;51.114;13.780;2023-11-19T15:24:58;22.17;;;3.60;;
572;SDS011;271;51.114;13.780;2023-11-19T15:27:46;29.00;;;3.80;;
572;SDS011;271;51.114;13.780;2023-11-19T15:30:34;19.93;;;2.93;;
572;SDS011;271;51.114;13.780;2023-11-19T15:33:21;19.83;;;3.80;;
572;SDS011;271;51.114;13.780;2023-11-19T15:36:09;24.50;;;3.50;;
572;SDS011;271;51.114;13.780;2023-11-19T15:38:57;25.07;;;2.93;;
572;SDS011;271;51.114;13.780;2023-11-19T15:41:47;22.50;;;3.07;;
572;SDS011;271;51.114;13.780;2023-11-19T15:44:35;21.40;;;3.17;;
572;SDS011;271;51.114;13.780;2023-11-19T15:47:23;20.30;;;2.80;;
572;SDS011;271;51.114;13.780;2023-11-19T15:50:11;21.07;;;2.73;;
572;SDS011;271;51.114;13.780;2023-11-19T15:52:58;22.23;;;4.67;;
572;SDS011;271;51.114;13.780;2023-11-19T15:55:47;24.10;;;3.70;;
572;SDS011;271;51.114;13.780;2023-11-19T15:58:36;23.47;;;3.60;;
572;SDS011;271;51.114;13.780;2023-11-19T16:01:25;24.43;;;3.30;;
572;SDS011;271;51.114;13.780;2023-11-19T16:04:14;21.30;;;2.90;;
572;SDS011;271;51.114;13.780;2023-11-19T16:07:02;18.57;;;2.13;;
572;SDS011;271;51.114;13.780;2023-11-19T16:09:51;21.07;;;2.73;;
572;SDS011;271;51.114;13.780;2023-11-19T16:12:39;20.13;;;2.73;;
572;SDS011;271;51.114;13.780;2023-11-19T16:15:28;18.20;;;2.80;;
572;SDS011;271;51.114;13.780;2023-11-19T16:18:16;24.10;;;3.63;;
572;SDS011;271;51.114;13.780;2023-11-19T16:21:03;19.47;;;3.10;;
572;SDS011;271;51.114;13.780;2023-11-19T16:23:52;20.23;;;3.00;;
572;SDS011;271;51.114;13.780;2023-11-19T16:26:40;24.10;;;4.00;;
572;SDS011;271;51.114;13.780;2023-11-19T16:29:27;23.67;;;3.93;;
572;SDS011;271;51.114;13.780;2023-11-19T16:32:16;21.17;;;3.00;;
572;SDS011;271;51.114;13.780;2023-11-19T16:35:05;21.53;;;4.63;;
572;SDS011;271;51.114;13.780;2023-11-19T16:37:56;23.47;;;4.10;;
572;SDS011;271;51.114;13.780;2023-11-19T16:40:43;21.40;;;3.43;;
572;SDS011;271;51.114;13.780;2023-11-19T16:43:31;19.77;;;3.23;;
572;SDS011;271;51.114;13.780;2023-11-19T16:46:19;29.87;;;5.90;;
572;SDS011;271;51.114;13.780;2023-11-19T16:49:08;22.42;;;5.32;;
572;SDS011;271;51.114;13.780;2023-11-19T16:51:56;30.93;;;8.83;;
572;SDS011;271;51.114;13.780;2023-11-19T16:54:44;19.40;;;3.30;;
572;SDS011;271;51.114;13.780;2023-11-19T16:57:31;25.20;;;5.07;;
572;SDS011;271;51.114;13.780;2023-11-19T17:00:19;25.10;;;4.60;;
572;SDS011;271;51.114;13.780;2023-11-19T17:03:07;28.37;;;6.77;;
572;SDS011;271;51.114;13.780;2023-11-19T17:05:56;27.90;;;5.80;;
572;SDS011;271;51.114;13.780;2023-11-19T17:08:44;21.07;;;3.90;;
572;SDS011;271;51.114;13.780;2023-11-19T17:11:32;20.50;;;3.70;;
572;SDS011;271;51.114;13.780;2023-11-19T17:14:21;19.83;;;3.57;;
572;SDS011;271;51.114;13.780;2023-11-19T17:17:09;20.60;;;3.80;;
572;SDS011;271;51.114;13.780;2023-11-19T17:19:56;18.40;;;2.20;;
572;SDS011;271;51.114;13.780;2023-11-19T17:22:52;18.47;;;2.90;;
572;SDS011;271;51.114;13.780;2023-11-19T17:25:41;24.10;;;2.83;;
572;SDS011;271;51.114;13.780;2023-11-19T17:28:30;18.83;;;3.57;;
572;SDS011;271;51.114;13.780;2023-11-19T17:31:21;24.87;;;3.30;;
572;SDS011;271;51.114;13.780;2023-11-19T17:34:11;17.80;;;2.17;;
572;SDS011;271;51.114;13.780;2023-11-19T17:36:59;20.77;;;2.83;;
572;SDS011;271;51.114;13.780;2023-11-19T17:39:48;19.40;;;3.17;;
572;SDS011;271;51.114;13.780;2023-11-19T17:42:38;24.43;;;3.33;;
572;SDS011;271;51.114;13.780;2023-11-19T17:45:25;19.87;;;2.73;;